sensor_id;sensor_type;location;lat;lon;timestamp;P1;durP1;ratioP1;P2;durP2;ratioP2
73421;SDS011;61637;47.760;-122.022;2023-02-08T00:00:01;15.3;;;2.6;;
73421;SDS011;61637;47.760;-122.022;2023-02-08T00:02:01;18.2;;;2.6;;
73421;SDS011;61637;47.760;-122.022;2023-02-08T00:04:01;16.6;;;2.4;;
73421;SDS011;61637;47.760;-122.022;2023-02-08T00:06:02;15.6;;;2.4;;
73421;SDS011;61637;47.760;-122.022;2023-02-08T00:08:01;14.9;;;2.8;;
73421;SDS011;61637;47.760;-122.022;2023-02-08T00:10:01;18.0;;;2.7;;
73421;SDS011;61637;47.760;-122.022;2023-02-08T00:12:01;15.0;;;2.5;;
73421;SDS011;61637;47.760;-122.022;2023-02-08T00:14:01;15.4;;;2.5;;
73421;SDS011;61637;47.760;-122.022;2023-02-08T00:16:02;11.9;;;2.1;;
73421;SDS011;61637;47.760;-122.022;2023-02-08T00:18:01;12.5;;;2.1;;
73421;SDS011;61637;47.760;-122.022;2023-02-08T00:20:01;13.6;;;2.1;;
73421;SDS011;61637;47.760;-122.022;2023-02-08T00:22:01;11.8;;;1.8;;
73421;SDS011;61637;47.760;-122.022;2023-02-08T00:24:01;12.6;;;1.9;;
73421;SDS011;61637;47.760;-122.022;2023-02-08T00:26:01;14.2;;;2.1;;
73421;SDS011;61637;47.760;-122.022;2023-02-08T00:28:02;13.1;;;1.9;;
73421;SDS011;61637;47.760;-122.022;2023-02-08T00:30:01;10.0;;;1.7;;
73421;SDS011;61637;47.760;-122.022;2023-02-08T00:32:01;11.2;;;1.8;;
73421;SDS011;61637;47.760;-122.022;2023-02-08T00:34:01;9.4;;;1.6;;
73421;SDS011;61637;47.760;-122.022;2023-02-08T00:36:03;10.2;;;1.5;;
73421;SDS011;61637;47.760;-122.022;2023-02-08T00:38:01;10.9;;;1.6;;
73421;SDS011;61637;47.760;-122.022;2023-02-08T00:40:01;9.5;;;1.5;;
73421;SDS011;61637;47.760;-122.022;2023-02-08T00:42:01;9.3;;;1.4;;
73421;SDS011;61637;47.760;-122.022;2023-02-08T00:44:01;10.6;;;1.9;;
73421;SDS011;61637;47.760;-122.022;2023-02-08T00:46:01;10.9;;;1.9;;
73421;SDS011;61637;47.760;-122.022;2023-02-08T00:48:01;12.2;;;1.7;;
73421;SDS011;61637;47.760;-122.022;2023-02-08T00:50:01;11.5;;;1.6;;
73421;SDS011;61637;47.760;-122.022;2023-02-08T00:52:01;10.5;;;1.8;;
73421;SDS011;61637;47.760;-122.022;2023-02-08T00:54:01;13.4;;;1.9;;
73421;SDS011;61637;47.760;-122.022;2023-02-08T00:56:01;10.0;;;1.8;;
73421;SDS011;61637;47.760;-122.022;2023-02-08T00:58:01;10.8;;;1.7;;
73421;SDS011;61637;47.760;-122.022;2023-02-08T01:00:02;12.6;;;2.0;;
73421;SDS011;61637;47.760;-122.022;2023-02-08T01:02:01;13.7;;;2.2;;
73421;SDS011;61637;47.760;-122.022;2023-02-08T01:04:01;9.4;;;1.4;;
73421;SDS011;61637;47.760;-122.022;2023-02-08T01:06:04;13.4;;;1.9;;
73421;SDS011;61637;47.760;-122.022;2023-02-08T01:08:01;12.0;;;1.9;;
73421;SDS011;61637;47.760;-122.022;2023-02-08T01:10:02;13.7;;;2.0;;
73421;SDS011;61637;47.760;-122.022;2023-02-08T01:12:01;13.6;;;1.8;;
73421;SDS011;61637;47.760;-122.022;2023-02-08T01:14:01;11.1;;;1.6;;
73421;SDS011;61637;47.760;-122.022;2023-02-08T01:16:11;15.5;;;2.0;;
73421;SDS011;61637;47.760;-122.022;2023-02-08T01:18:01;14.5;;;2.2;;
73421;SDS011;61637;47.760;-122.022;2023-02-08T01:20:02;15.6;;;2.1;;
73421;SDS011;61637;47.760;-122.022;2023-02-08T01:22:02;12.6;;;2.0;;
73421;SDS011;61637;47.760;-122.022;2023-02-08T01:24:02;14.1;;;2.6;;
73421;SDS011;61637;47.760;-122.022;2023-02-08T01:26:01;15.7;;;1.8;;
73421;SDS011;61637;47.760;-122.022;2023-02-08T01:28:01;12.8;;;1.7;;
73421;SDS011;61637;47.760;-122.022;2023-02-08T01:30:01;16.0;;;2.4;;
73421;SDS011;61637;47.760;-122.022;2023-02-08T01:32:01;11.5;;;1.7;;
73421;SDS011;61637;47.760;-122.022;2023-02-08T01:34:03;12.3;;;1.8;;
73421;SDS011;61637;47.760;-122.022;2023-02-08T01:36:01;11.3;;;1.7;;
73421;SDS011;61637;47.760;-122.022;2023-02-08T01:38:01;14.8;;;2.5;;
73421;SDS011;61637;47.760;-122.022;2023-02-08T01:40:01;20.7;;;2.8;;
73421;SDS011;61637;47.760;-122.022;2023-02-08T01:42:01;15.4;;;2.4;;
73421;SDS011;61637;47.760;-122.022;2023-02-08T01:44:07;14.9;;;2.4;;
73421;SDS011;61637;47.760;-122.022;2023-02-08T01:46:01;17.3;;;3.0;;
73421;SDS011;61637;47.760;-122.022;2023-02-08T01:48:04;18.7;;;2.6;;
73421;SDS011;61637;47.760;-122.022;2023-02-08T01:50:01;20.9;;;3.1;;
73421;SDS011;61637;47.760;-122.022;2023-02-08T01:52:05;19.1;;;3.5;;
73421;SDS011;61637;47.760;-122.022;2023-02-08T01:54:04;22.1;;;3.6;;
73421;SDS011;61637;47.760;-122.022;2023-02-08T01:56:04;21.7;;;4.1;;
73421;SDS011;61637;47.760;-122.022;2023-02-08T01:58:05;18.4;;;3.2;;
73421;SDS011;61637;47.760;-122.022;2023-02-08T02:00:06;24.7;;;4.6;;
73421;SDS011;61637;47.760;-122.022;2023-02-08T02:02:02;22.5;;;4.3;;
73421;SDS011;61637;47.760;-122.022;2023-02-08T02:04:02;18.7;;;3.6;;
73421;SDS011;61637;47.760;-122.022;2023-02-08T02:06:04;23.3;;;3.7;;
73421;SDS011;61637;47.760;-122.022;2023-02-08T02:08:01;18.7;;;3.8;;
73421;SDS011;61637;47.760;-122.022;2023-02-08T02:10:08;24.7;;;3.7;;
73421;SDS011;61637;47.760;-122.022;2023-02-08T02:12:01;22.0;;;3.7;;
73421;SDS011;61637;47.760;-122.022;2023-02-08T02:14:02;24.5;;;3.1;;
73421;SDS011;61637;47.760;-122.022;2023-02-08T02:16:01;19.0;;;3.0;;
73421;SDS011;61637;47.760;-122.022;2023-02-08T02:18:03;22.1;;;3.1;;
73421;SDS011;61637;47.760;-122.022;2023-02-08T02:20:05;18.6;;;2.9;;
73421;SDS011;61637;47.760;-122.022;2023-02-08T02:22:06;20.8;;;3.2;;
73421;SDS011;61637;47.760;-122.022;2023-02-08T02:28:21;19.1;;;3.0;;
73421;SDS011;61637;47.760;-122.022;2023-02-08T02:32:07;20.0;;;3.1;;
73421;SDS011;61637;47.760;-122.022;2023-02-08T02:34:03;23.5;;;3.6;;
73421;SDS011;61637;47.760;-122.022;2023-02-08T02:36:07;19.3;;;2.8;;
73421;SDS011;61637;47.760;-122.022;2023-02-08T02:38:07;23.9;;;3.2;;
73421;SDS011;61637;47.760;-122.022;2023-02-08T02:40:09;23.3;;;2.9;;
73421;SDS011;61637;47.760;-122.022;2023-02-08T02:42:09;18.4;;;2.5;;
73421;SDS011;61637;47.760;-122.022;2023-02-08T02:44:04;21.6;;;2.9;;
73421;SDS011;61637;47.760;-122.022;2023-02-08T02:46:06;18.0;;;3.2;;
73421;SDS011;61637;47.760;-122.022;2023-02-08T02:48:07;24.0;;;2.9;;
73421;SDS011;61637;47.760;-122.022;2023-02-08T02:50:05;18.8;;;2.6;;
73421;SDS011;61637;47.760;-122.022;2023-02-08T02:52:05;19.6;;;3.0;;
73421;SDS011;61637;47.760;-122.022;2023-02-08T02:54:05;21.3;;;2.9;;
73421;SDS011;61637;47.760;-122.022;2023-02-08T02:56:06;21.6;;;2.9;;
73421;SDS011;61637;47.760;-122.022;2023-02-08T02:58:02;24.6;;;3.1;;
73421;SDS011;61637;47.760;-122.022;2023-02-08T03:00:05;23.4;;;3.1;;
73421;SDS011;61637;47.760;-122.022;2023-02-08T03:02:02;23.4;;;3.1;;
73421;SDS011;61637;47.760;-122.022;2023-02-08T03:04:12;21.7;;;3.4;;
73421;SDS011;61637;47.760;-122.022;2023-02-08T03:06:05;21.7;;;3.4;;
73421;SDS011;61637;47.760;-122.022;2023-02-08T03:08:10;25.4;;;3.2;;
73421;SDS011;61637;47.760;-122.022;2023-02-08T03:10:07;17.6;;;2.7;;
73421;SDS011;61637;47.760;-122.022;2023-02-08T03:12:05;17.6;;;2.7;;
73421;SDS011;61637;47.760;-122.022;2023-02-08T03:14:14;19.3;;;2.7;;
73421;SDS011;61637;47.760;-122.022;2023-02-08T03:16:10;19.3;;;2.7;;
73421;SDS011;61637;47.760;-122.022;2023-02-08T03:18:09;21.3;;;2.8;;
73421;SDS011;61637;47.760;-122.022;2023-02-08T03:20:04;20.5;;;3.1;;
73421;SDS011;61637;47.760;-122.022;2023-02-08T03:22:04;20.1;;;2.9;;
73421;SDS011;61637;47.760;-122.022;2023-02-08T03:24:07;22.6;;;2.8;;
73421;SDS011;61637;47.760;-122.022;2023-02-08T03:26:06;21.3;;;2.8;;
73421;SDS011;61637;47.760;-122.022;2023-02-08T03:28:06;18.0;;;2.7;;
73421;SDS011;61637;47.760;-122.022;2023-02-08T03:30:05;19.7;;;2.7;;
73421;SDS011;61637;47.760;-122.022;2023-02-08T03:32:06;22.8;;;3.0;;
73421;SDS011;61637;47.760;-122.022;2023-02-08T03:34:05;20.5;;;3.1;;
73421;SDS011;61637;47.760;-122.022;2023-02-08T03:36:07;17.0;;;2.7;;
73421;SDS011;61637;47.760;-122.022;2023-02-08T03:38:04;19.3;;;3.0;;
73421;SDS011;61637;47.760;-122.022;2023-02-08T03:40:06;19.5;;;3.0;;
73421;SDS011;61637;47.760;-122.022;2023-02-08T03:42:04;21.9;;;3.0;;
73421;SDS011;61637;47.760;-122.022;2023-02-08T03:44:03;21.7;;;2.7;;
73421;SDS011;61637;47.760;-122.022;2023-02-08T03:46:05;21.3;;;3.0;;
73421;SDS011;61637;47.760;-122.022;2023-02-08T03:48:04;18.3;;;2.7;;
73421;SDS011;61637;47.760;-122.022;2023-02-08T03:50:04;19.8;;;2.8;;
73421;SDS011;61637;47.760;-122.022;2023-02-08T03:52:04;20.7;;;3.0;;
73421;SDS011;61637;47.760;-122.022;2023-02-08T03:54:04;19.3;;;2.6;;
73421;SDS011;61637;47.760;-122.022;2023-02-08T03:56:04;21.0;;;2.7;;
73421;SDS011;61637;47.760;-122.022;2023-02-08T03:58:05;19.8;;;2.7;;
73421;SDS011;61637;47.760;-122.022;2023-02-08T04:00:06;21.5;;;2.8;;
73421;SDS011;61637;47.760;-122.022;2023-02-08T04:02:03;19.1;;;2.8;;
73421;SDS011;61637;47.760;-122.022;2023-02-08T04:04:02;18.4;;;2.5;;
73421;SDS011;61637;47.760;-122.022;2023-02-08T04:06:01;19.3;;;2.9;;
73421;SDS011;61637;47.760;-122.022;2023-02-08T04:08:01;19.5;;;2.9;;
73421;SDS011;61637;47.760;-122.022;2023-02-08T04:10:01;18.0;;;2.8;;
73421;SDS011;61637;47.760;-122.022;2023-02-08T04:12:01;16.0;;;2.4;;
73421;SDS011;61637;47.760;-122.022;2023-02-08T04:14:01;14.9;;;2.3;;
73421;SDS011;61637;47.760;-122.022;2023-02-08T04:16:01;18.8;;;2.6;;
73421;SDS011;61637;47.760;-122.022;2023-02-08T04:18:01;14.8;;;2.4;;
73421;SDS011;61637;47.760;-122.022;2023-02-08T04:20:01;15.8;;;2.1;;
73421;SDS011;61637;47.760;-122.022;2023-02-08T04:22:01;14.7;;;2.6;;
73421;SDS011;61637;47.760;-122.022;2023-02-08T04:24:01;13.3;;;2.0;;
73421;SDS011;61637;47.760;-122.022;2023-02-08T04:26:01;17.7;;;2.5;;
73421;SDS011;61637;47.760;-122.022;2023-02-08T04:28:01;16.5;;;2.4;;
73421;SDS011;61637;47.760;-122.022;2023-02-08T04:30:01;15.6;;;2.3;;
73421;SDS011;61637;47.760;-122.022;2023-02-08T04:32:01;16.3;;;2.2;;
73421;SDS011;61637;47.760;-122.022;2023-02-08T04:34:01;18.4;;;2.2;;
73421;SDS011;61637;47.760;-122.022;2023-02-08T04:36:01;16.5;;;2.4;;
73421;SDS011;61637;47.760;-122.022;2023-02-08T04:38:01;14.8;;;2.2;;
73421;SDS011;61637;47.760;-122.022;2023-02-08T04:40:01;14.7;;;2.1;;
73421;SDS011;61637;47.760;-122.022;2023-02-08T04:42:01;15.8;;;2.2;;
73421;SDS011;61637;47.760;-122.022;2023-02-08T04:44:01;16.2;;;2.4;;
73421;SDS011;61637;47.760;-122.022;2023-02-08T04:46:02;16.0;;;2.2;;
73421;SDS011;61637;47.760;-122.022;2023-02-08T04:48:02;16.3;;;1.9;;
73421;SDS011;61637;47.760;-122.022;2023-02-08T04:50:01;14.9;;;2.2;;
73421;SDS011;61637;47.760;-122.022;2023-02-08T04:52:01;15.7;;;2.1;;
73421;SDS011;61637;47.760;-122.022;2023-02-08T04:54:01;15.0;;;2.1;;
73421;SDS011;61637;47.760;-122.022;2023-02-08T04:56:02;13.1;;;1.9;;
73421;SDS011;61637;47.760;-122.022;2023-02-08T04:58:02;15.8;;;2.6;;
73421;SDS011;61637;47.760;-122.022;2023-02-08T05:00:01;15.4;;;2.5;;
73421;SDS011;61637;47.760;-122.022;2023-02-08T05:02:01;14.3;;;2.2;;
73421;SDS011;61637;47.760;-122.022;2023-02-08T05:04:01;12.6;;;2.2;;
73421;SDS011;61637;47.760;-122.022;2023-02-08T05:06:01;14.2;;;1.9;;
73421;SDS011;61637;47.760;-122.022;2023-02-08T05:08:01;17.5;;;2.0;;
73421;SDS011;61637;47.760;-122.022;2023-02-08T05:10:01;11.7;;;1.9;;
73421;SDS011;61637;47.760;-122.022;2023-02-08T05:12:01;13.2;;;2.1;;
73421;SDS011;61637;47.760;-122.022;2023-02-08T05:14:01;15.3;;;2.3;;
73421;SDS011;61637;47.760;-122.022;2023-02-08T05:16:01;12.8;;;1.8;;
73421;SDS011;61637;47.760;-122.022;2023-02-08T05:18:01;10.1;;;1.4;;
73421;SDS011;61637;47.760;-122.022;2023-02-08T05:20:02;11.5;;;1.8;;
73421;SDS011;61637;47.760;-122.022;2023-02-08T05:22:01;10.5;;;1.7;;
73421;SDS011;61637;47.760;-122.022;2023-02-08T05:24:01;9.6;;;1.3;;
73421;SDS011;61637;47.760;-122.022;2023-02-08T05:26:04;9.3;;;1.5;;
73421;SDS011;61637;47.760;-122.022;2023-02-08T05:28:01;8.7;;;1.4;;
73421;SDS011;61637;47.760;-122.022;2023-02-08T05:30:02;11.7;;;1.7;;
73421;SDS011;61637;47.760;-122.022;2023-02-08T05:32:01;8.2;;;1.2;;
73421;SDS011;61637;47.760;-122.022;2023-02-08T05:34:01;9.9;;;1.3;;
73421;SDS011;61637;47.760;-122.022;2023-02-08T05:36:01;8.1;;;1.2;;
73421;SDS011;61637;47.760;-122.022;2023-02-08T05:38:01;10.2;;;1.7;;
73421;SDS011;61637;47.760;-122.022;2023-02-08T05:40:01;9.8;;;1.4;;
73421;SDS011;61637;47.760;-122.022;2023-02-08T05:42:01;9.5;;;1.5;;
73421;SDS011;61637;47.760;-122.022;2023-02-08T05:44:01;10.7;;;1.4;;
73421;SDS011;61637;47.760;-122.022;2023-02-08T05:46:02;8.9;;;1.6;;
73421;SDS011;61637;47.760;-122.022;2023-02-08T05:48:01;11.8;;;1.6;;
73421;SDS011;61637;47.760;-122.022;2023-02-08T05:50:01;12.0;;;1.5;;
73421;SDS011;61637;47.760;-122.022;2023-02-08T05:52:01;8.8;;;1.3;;
73421;SDS011;61637;47.760;-122.022;2023-02-08T05:54:01;10.4;;;1.3;;
73421;SDS011;61637;47.760;-122.022;2023-02-08T05:56:01;10.2;;;1.5;;
73421;SDS011;61637;47.760;-122.022;2023-02-08T05:58:02;8.7;;;1.4;;
73421;SDS011;61637;47.760;-122.022;2023-02-08T06:00:01;9.4;;;1.5;;
73421;SDS011;61637;47.760;-122.022;2023-02-08T06:02:01;8.2;;;1.4;;
73421;SDS011;61637;47.760;-122.022;2023-02-08T06:04:01;11.6;;;1.4;;
73421;SDS011;61637;47.760;-122.022;2023-02-08T06:06:01;9.7;;;1.5;;
73421;SDS011;61637;47.760;-122.022;2023-02-08T06:08:01;7.6;;;1.3;;
73421;SDS011;61637;47.760;-122.022;2023-02-08T06:10:01;8.7;;;1.3;;
73421;SDS011;61637;47.760;-122.022;2023-02-08T06:12:01;10.7;;;1.5;;
73421;SDS011;61637;47.760;-122.022;2023-02-08T06:14:01;9.1;;;1.5;;
73421;SDS011;61637;47.760;-122.022;2023-02-08T06:16:01;10.7;;;1.5;;
73421;SDS011;61637;47.760;-122.022;2023-02-08T06:18:01;13.8;;;1.5;;
73421;SDS011;61637;47.760;-122.022;2023-02-08T06:20:01;12.1;;;1.5;;
73421;SDS011;61637;47.760;-122.022;2023-02-08T06:22:01;11.0;;;1.6;;
73421;SDS011;61637;47.760;-122.022;2023-02-08T06:24:01;10.4;;;1.4;;
73421;SDS011;61637;47.760;-122.022;2023-02-08T06:26:01;9.1;;;1.4;;
73421;SDS011;61637;47.760;-122.022;2023-02-08T06:28:01;7.8;;;1.3;;
73421;SDS011;61637;47.760;-122.022;2023-02-08T06:30:01;8.5;;;1.3;;
73421;SDS011;61637;47.760;-122.022;2023-02-08T06:32:01;8.9;;;1.5;;
73421;SDS011;61637;47.760;-122.022;2023-02-08T06:34:02;8.7;;;1.2;;
73421;SDS011;61637;47.760;-122.022;2023-02-08T06:36:01;8.4;;;1.2;;
73421;SDS011;61637;47.760;-122.022;2023-02-08T06:38:01;7.1;;;1.3;;
73421;SDS011;61637;47.760;-122.022;2023-02-08T06:40:01;8.2;;;1.3;;
73421;SDS011;61637;47.760;-122.022;2023-02-08T06:42:01;7.7;;;1.3;;
73421;SDS011;61637;47.760;-122.022;2023-02-08T06:44:01;9.8;;;1.4;;
73421;SDS011;61637;47.760;-122.022;2023-02-08T06:46:01;10.9;;;1.4;;
73421;SDS011;61637;47.760;-122.022;2023-02-08T06:48:01;9.4;;;1.2;;
73421;SDS011;61637;47.760;-122.022;2023-02-08T06:50:01;8.1;;;1.2;;
73421;SDS011;61637;47.760;-122.022;2023-02-08T06:52:01;7.3;;;1.1;;
73421;SDS011;61637;47.760;-122.022;2023-02-08T06:54:01;10.2;;;1.4;;
73421;SDS011;61637;47.760;-122.022;2023-02-08T06:56:01;9.7;;;1.3;;
73421;SDS011;61637;47.760;-122.022;2023-02-08T06:58:01;7.4;;;1.5;;
73421;SDS011;61637;47.760;-122.022;2023-02-08T07:00:01;8.7;;;1.2;;
73421;SDS011;61637;47.760;-122.022;2023-02-08T07:02:01;10.5;;;1.5;;
73421;SDS011;61637;47.760;-122.022;2023-02-08T07:04:02;11.1;;;1.4;;
73421;SDS011;61637;47.760;-122.022;2023-02-08T07:06:01;9.0;;;1.6;;
73421;SDS011;61637;47.760;-122.022;2023-02-08T07:08:01;13.2;;;1.8;;
73421;SDS011;61637;47.760;-122.022;2023-02-08T07:10:01;8.7;;;1.4;;
73421;SDS011;61637;47.760;-122.022;2023-02-08T07:12:01;10.6;;;1.5;;
73421;SDS011;61637;47.760;-122.022;2023-02-08T07:14:01;8.2;;;1.5;;
73421;SDS011;61637;47.760;-122.022;2023-02-08T07:16:01;8.8;;;1.4;;
73421;SDS011;61637;47.760;-122.022;2023-02-08T07:18:01;8.0;;;1.4;;
73421;SDS011;61637;47.760;-122.022;2023-02-08T07:20:01;13.2;;;1.6;;
73421;SDS011;61637;47.760;-122.022;2023-02-08T07:22:02;9.5;;;1.9;;
73421;SDS011;61637;47.760;-122.022;2023-02-08T07:24:01;9.5;;;1.9;;
73421;SDS011;61637;47.760;-122.022;2023-02-08T07:26:04;8.8;;;1.7;;
73421;SDS011;61637;47.760;-122.022;2023-02-08T07:28:01;11.2;;;1.3;;
73421;SDS011;61637;47.760;-122.022;2023-02-08T07:30:02;11.7;;;1.8;;
73421;SDS011;61637;47.760;-122.022;2023-02-08T07:32:02;9.6;;;1.4;;
73421;SDS011;61637;47.760;-122.022;2023-02-08T07:34:01;9.4;;;1.4;;
73421;SDS011;61637;47.760;-122.022;2023-02-08T07:36:02;12.4;;;1.5;;
73421;SDS011;61637;47.760;-122.022;2023-02-08T07:38:01;8.7;;;1.4;;
73421;SDS011;61637;47.760;-122.022;2023-02-08T07:40:01;10.3;;;1.5;;
73421;SDS011;61637;47.760;-122.022;2023-02-08T07:42:01;10.0;;;1.8;;
73421;SDS011;61637;47.760;-122.022;2023-02-08T07:44:01;10.1;;;2.6;;
73421;SDS011;61637;47.760;-122.022;2023-02-08T07:46:05;7.9;;;2.4;;
73421;SDS011;61637;47.760;-122.022;2023-02-08T07:48:01;12.1;;;3.9;;
73421;SDS011;61637;47.760;-122.022;2023-02-08T07:50:01;10.4;;;3.0;;
73421;SDS011;61637;47.760;-122.022;2023-02-08T07:52:02;10.5;;;1.6;;
73421;SDS011;61637;47.760;-122.022;2023-02-08T07:54:01;11.3;;;1.5;;
73421;SDS011;61637;47.760;-122.022;2023-02-08T07:56:02;11.6;;;1.3;;
73421;SDS011;61637;47.760;-122.022;2023-02-08T07:58:01;10.3;;;1.5;;
73421;SDS011;61637;47.760;-122.022;2023-02-08T08:00:01;9.2;;;1.5;;
73421;SDS011;61637;47.760;-122.022;2023-02-08T08:02:01;10.1;;;1.5;;
73421;SDS011;61637;47.760;-122.022;2023-02-08T08:04:01;10.1;;;1.8;;
73421;SDS011;61637;47.760;-122.022;2023-02-08T08:06:01;14.2;;;1.9;;
73421;SDS011;61637;47.760;-122.022;2023-02-08T08:08:01;9.1;;;3.2;;
73421;SDS011;61637;47.760;-122.022;2023-02-08T08:10:02;12.7;;;2.1;;
73421;SDS011;61637;47.760;-122.022;2023-02-08T08:12:01;11.1;;;2.9;;
73421;SDS011;61637;47.760;-122.022;2023-02-08T08:14:01;13.3;;;3.7;;
73421;SDS011;61637;47.760;-122.022;2023-02-08T08:16:01;8.7;;;2.1;;
73421;SDS011;61637;47.760;-122.022;2023-02-08T08:18:01;10.8;;;2.5;;
73421;SDS011;61637;47.760;-122.022;2023-02-08T08:20:01;11.2;;;2.0;;
73421;SDS011;61637;47.760;-122.022;2023-02-08T08:22:01;9.4;;;1.3;;
73421;SDS011;61637;47.760;-122.022;2023-02-08T08:24:01;13.9;;;1.8;;
73421;SDS011;61637;47.760;-122.022;2023-02-08T08:26:05;11.0;;;1.5;;
73421;SDS011;61637;47.760;-122.022;2023-02-08T08:28:02;7.1;;;1.3;;
73421;SDS011;61637;47.760;-122.022;2023-02-08T08:30:01;8.7;;;1.5;;
73421;SDS011;61637;47.760;-122.022;2023-02-08T08:32:02;12.0;;;1.5;;
73421;SDS011;61637;47.760;-122.022;2023-02-08T08:34:01;10.2;;;1.5;;
73421;SDS011;61637;47.760;-122.022;2023-02-08T08:36:01;8.6;;;1.2;;
73421;SDS011;61637;47.760;-122.022;2023-02-08T08:38:01;10.6;;;1.4;;
73421;SDS011;61637;47.760;-122.022;2023-02-08T08:40:02;9.8;;;1.3;;
73421;SDS011;61637;47.760;-122.022;2023-02-08T08:42:02;8.5;;;1.6;;
73421;SDS011;61637;47.760;-122.022;2023-02-08T08:44:01;8.9;;;1.4;;
73421;SDS011;61637;47.760;-122.022;2023-02-08T08:46:03;10.0;;;1.8;;
73421;SDS011;61637;47.760;-122.022;2023-02-08T08:48:02;9.6;;;4.4;;
73421;SDS011;61637;47.760;-122.022;2023-02-08T08:50:01;11.1;;;3.6;;
73421;SDS011;61637;47.760;-122.022;2023-02-08T08:52:01;11.6;;;1.7;;
73421;SDS011;61637;47.760;-122.022;2023-02-08T08:54:02;10.6;;;3.9;;
73421;SDS011;61637;47.760;-122.022;2023-02-08T08:56:01;13.8;;;9.1;;
73421;SDS011;61637;47.760;-122.022;2023-02-08T08:58:01;13.5;;;8.5;;
73421;SDS011;61637;47.760;-122.022;2023-02-08T09:00:02;12.6;;;9.6;;
73421;SDS011;61637;47.760;-122.022;2023-02-08T09:02:01;14.6;;;9.3;;
73421;SDS011;61637;47.760;-122.022;2023-02-08T09:04:02;11.2;;;5.8;;
73421;SDS011;61637;47.760;-122.022;2023-02-08T09:06:01;10.2;;;5.2;;
73421;SDS011;61637;47.760;-122.022;2023-02-08T09:08:01;10.9;;;3.9;;
73421;SDS011;61637;47.760;-122.022;2023-02-08T09:10:02;12.5;;;3.8;;
73421;SDS011;61637;47.760;-122.022;2023-02-08T09:12:02;10.3;;;5.6;;
73421;SDS011;61637;47.760;-122.022;2023-02-08T09:14:01;13.2;;;9.3;;
73421;SDS011;61637;47.760;-122.022;2023-02-08T09:16:04;11.7;;;7.1;;
73421;SDS011;61637;47.760;-122.022;2023-02-08T09:18:01;12.2;;;7.5;;
73421;SDS011;61637;47.760;-122.022;2023-02-08T09:20:01;8.5;;;4.6;;
73421;SDS011;61637;47.760;-122.022;2023-02-08T09:22:01;10.5;;;3.3;;
73421;SDS011;61637;47.760;-122.022;2023-02-08T09:24:01;9.3;;;1.7;;
73421;SDS011;61637;47.760;-122.022;2023-02-08T09:26:02;7.4;;;1.6;;
73421;SDS011;61637;47.760;-122.022;2023-02-08T09:28:01;8.7;;;1.9;;
73421;SDS011;61637;47.760;-122.022;2023-02-08T09:30:01;6.7;;;1.6;;
73421;SDS011;61637;47.760;-122.022;2023-02-08T09:32:02;7.4;;;1.3;;
73421;SDS011;61637;47.760;-122.022;2023-02-08T09:34:01;7.8;;;1.2;;
73421;SDS011;61637;47.760;-122.022;2023-02-08T09:36:01;5.2;;;1.0;;
73421;SDS011;61637;47.760;-122.022;2023-02-08T09:38:02;5.6;;;1.0;;
73421;SDS011;61637;47.760;-122.022;2023-02-08T09:40:02;5.7;;;1.1;;
73421;SDS011;61637;47.760;-122.022;2023-02-08T09:44:09;6.2;;;1.2;;
73421;SDS011;61637;47.760;-122.022;2023-02-08T09:46:06;6.0;;;1.1;;
73421;SDS011;61637;47.760;-122.022;2023-02-08T09:48:06;8.2;;;1.3;;
73421;SDS011;61637;47.760;-122.022;2023-02-08T09:50:08;6.3;;;0.9;;
73421;SDS011;61637;47.760;-122.022;2023-02-08T09:52:04;6.2;;;1.1;;
73421;SDS011;61637;47.760;-122.022;2023-02-08T09:54:06;8.3;;;1.5;;
73421;SDS011;61637;47.760;-122.022;2023-02-08T09:56:04;9.6;;;2.8;;
73421;SDS011;61637;47.760;-122.022;2023-02-08T09:58:06;6.8;;;2.3;;
73421;SDS011;61637;47.760;-122.022;2023-02-08T10:00:06;7.7;;;2.1;;
73421;SDS011;61637;47.760;-122.022;2023-02-08T10:02:10;9.8;;;4.1;;
73421;SDS011;61637;47.760;-122.022;2023-02-08T10:04:05;8.4;;;5.2;;
73421;SDS011;61637;47.760;-122.022;2023-02-08T10:06:02;8.9;;;2.4;;
73421;SDS011;61637;47.760;-122.022;2023-02-08T10:08:01;6.4;;;1.2;;
73421;SDS011;61637;47.760;-122.022;2023-02-08T10:10:04;7.1;;;1.1;;
73421;SDS011;61637;47.760;-122.022;2023-02-08T10:12:07;7.1;;;1.0;;
73421;SDS011;61637;47.760;-122.022;2023-02-08T10:14:15;6.8;;;1.1;;
73421;SDS011;61637;47.760;-122.022;2023-02-08T10:16:08;8.3;;;1.2;;
73421;SDS011;61637;47.760;-122.022;2023-02-08T10:18:12;7.6;;;1.3;;
73421;SDS011;61637;47.760;-122.022;2023-02-08T10:20:12;7.2;;;1.3;;
73421;SDS011;61637;47.760;-122.022;2023-02-08T10:22:12;7.9;;;1.2;;
73421;SDS011;61637;47.760;-122.022;2023-02-08T10:24:16;6.9;;;1.0;;
73421;SDS011;61637;47.760;-122.022;2023-02-08T10:26:08;6.9;;;1.2;;
73421;SDS011;61637;47.760;-122.022;2023-02-08T10:28:17;10.1;;;1.2;;
73421;SDS011;61637;47.760;-122.022;2023-02-08T10:30:13;7.6;;;1.1;;
73421;SDS011;61637;47.760;-122.022;2023-02-08T10:32:14;6.7;;;1.2;;
73421;SDS011;61637;47.760;-122.022;2023-02-08T10:34:03;8.1;;;1.3;;
73421;SDS011;61637;47.760;-122.022;2023-02-08T10:36:01;6.9;;;1.1;;
73421;SDS011;61637;47.760;-122.022;2023-02-08T10:38:06;8.3;;;1.4;;
73421;SDS011;61637;47.760;-122.022;2023-02-08T10:40:18;8.8;;;1.6;;
73421;SDS011;61637;47.760;-122.022;2023-02-08T10:42:01;8.8;;;1.2;;
73421;SDS011;61637;47.760;-122.022;2023-02-08T10:44:04;8.4;;;1.7;;
73421;SDS011;61637;47.760;-122.022;2023-02-08T10:46:08;7.9;;;1.9;;
73421;SDS011;61637;47.760;-122.022;2023-02-08T10:48:06;8.3;;;1.4;;
73421;SDS011;61637;47.760;-122.022;2023-02-08T10:50:05;7.5;;;1.1;;
73421;SDS011;61637;47.760;-122.022;2023-02-08T10:52:01;8.0;;;1.7;;
73421;SDS011;61637;47.760;-122.022;2023-02-08T10:54:02;10.2;;;1.6;;
73421;SDS011;61637;47.760;-122.022;2023-02-08T10:56:02;7.4;;;1.3;;
73421;SDS011;61637;47.760;-122.022;2023-02-08T10:58:04;7.0;;;1.5;;
73421;SDS011;61637;47.760;-122.022;2023-02-08T11:00:04;6.0;;;1.0;;
73421;SDS011;61637;47.760;-122.022;2023-02-08T11:02:01;9.9;;;1.3;;
73421;SDS011;61637;47.760;-122.022;2023-02-08T11:04:03;8.0;;;1.1;;
73421;SDS011;61637;47.760;-122.022;2023-02-08T11:06:01;7.6;;;1.6;;
73421;SDS011;61637;47.760;-122.022;2023-02-08T11:08:06;8.6;;;1.8;;
73421;SDS011;61637;47.760;-122.022;2023-02-08T11:10:13;11.7;;;3.9;;
73421;SDS011;61637;47.760;-122.022;2023-02-08T11:12:01;8.9;;;2.5;;
73421;SDS011;61637;47.760;-122.022;2023-02-08T11:14:14;9.3;;;3.9;;
73421;SDS011;61637;47.760;-122.022;2023-02-08T11:16:03;9.9;;;2.8;;
73421;SDS011;61637;47.760;-122.022;2023-02-08T11:18:01;7.5;;;2.0;;
73421;SDS011;61637;47.760;-122.022;2023-02-08T11:20:02;7.0;;;1.2;;
73421;SDS011;61637;47.760;-122.022;2023-02-08T11:22:02;6.3;;;1.1;;
73421;SDS011;61637;47.760;-122.022;2023-02-08T11:24:20;7.5;;;1.1;;
73421;SDS011;61637;47.760;-122.022;2023-02-08T11:26:13;5.0;;;1.0;;
73421;SDS011;61637;47.760;-122.022;2023-02-08T11:28:02;9.7;;;1.4;;
73421;SDS011;61637;47.760;-122.022;2023-02-08T11:30:19;6.7;;;0.9;;
73421;SDS011;61637;47.760;-122.022;2023-02-08T11:32:03;6.5;;;1.0;;
73421;SDS011;61637;47.760;-122.022;2023-02-08T11:34:02;10.2;;;1.1;;
73421;SDS011;61637;47.760;-122.022;2023-02-08T11:36:05;5.4;;;0.9;;
73421;SDS011;61637;47.760;-122.022;2023-02-08T11:38:01;6.1;;;1.0;;
73421;SDS011;61637;47.760;-122.022;2023-02-08T11:40:02;8.7;;;1.1;;
73421;SDS011;61637;47.760;-122.022;2023-02-08T11:42:02;8.5;;;1.0;;
73421;SDS011;61637;47.760;-122.022;2023-02-08T11:44:03;8.7;;;1.2;;
73421;SDS011;61637;47.760;-122.022;2023-02-08T11:46:03;7.7;;;1.1;;
73421;SDS011;61637;47.760;-122.022;2023-02-08T11:48:03;7.7;;;1.1;;
73421;SDS011;61637;47.760;-122.022;2023-02-08T11:50:03;7.4;;;1.2;;
73421;SDS011;61637;47.760;-122.022;2023-02-08T11:52:01;6.8;;;1.1;;